Saturday, August 18, 2018, 2:00 PM GMT
Back to Local

CYCX, Gagetown Can-Mil

Location: , , Canada Lat: 45.833
Local Time: 2:00 PM GMT (14:00 GMT) Lon: -66.433
Time Zone: GMT Elev: 167 ft

Show me the last for .
Show Coded

Time T Td Feel RH Dir Speed Gust Alt SLP Vis Weather Sky Remarks
2018-08-18 13:19 61 59 - 93 40° 10 - 29.80 29.80 2 -DZ BR OVC003 None
2018-08-18 13:00 61 59 - 93 40° 7 - 29.81 29.81 2 -SHRA BR OVC004 None
2018-08-18 12:00 61 59 - 93 60° 5 - 29.81 29.80 1 -SHRA BR OVC004 None
2018-08-18 11:36 59 59 - 100 50° 7 - 29.81 29.81 1 -SHRA BR OVC002 None
2018-08-18 11:12 59 57 - 93 70° 5 - 29.81 29.82 1 -SHRA BR OVC004 None
2018-08-18 11:00 59 57 - 93 80° 7 - 29.81 29.81 3 -SHRA BR OVC004 None
2018-08-18 10:48 59 57 - 93 70° 5 - 29.81 29.81 3 -SHRA BR OVC006 None
2018-08-18 10:00 59 57 - 93 100° 6 - 29.83 29.83 8 OVC010 None
2018-08-18 09:31 59 57 - 93 90° 8 - 29.84 29.84 3 -SHRA BR OVC012 None
2018-08-18 09:12 59 57 - 93 80° 7 - 29.84 29.84 3 -SHRA BR OVC004 Pressure falling rapidly
2018-08-18 09:00 59 57 - 93 30° 6 - 29.85 29.85 3 -SHRA BR OVC009 None
2018-08-18 08:33 59 57 - 93 90° 2 - 29.85 29.85 3 -SHRA BR OVC006 None
2018-08-18 08:00 59 57 - 93 100° 7 - 29.86 29.86 1 SHRA BR OVC006 None
2018-08-18 07:43 59 57 - 93 90° 6 - 29.88 29.88 1 SHRA BR OVC005 None
2018-08-18 07:00 59 57 - 93 100° 3 - 29.90 29.90 2 -SHRA BR OVC015 None
2018-08-18 06:44 59 57 - 93 70° 2 - 29.90 29.90 4 -SHRA OVC020 None
2018-08-18 06:00 59 59 - 100 170° 5 - 29.92 29.92 2 -SHRA OVC010 None
2018-08-18 05:12 61 57 - 87 170° 3 - 29.94 29.94 15 -SHRA BKN050 OVC080 None
2018-08-18 05:00 61 57 - 87 190° 5 - 29.94 29.94 15 BKN050 OVC080 None
2018-08-18 04:00 63 57 - 82 190° 6 - 29.95 29.95 15 -SHRA BKN040 OVC090 None
2018-08-18 03:40 63 55 - 77 190° 8 - 29.96 29.96 15 SCT040 OVC210 None
2018-08-18 03:00 63 55 - 77 180° 9 - 29.96 29.96 12 -SHRA SCT030 OVC210 None
2018-08-18 02:00 63 54 - 72 180° 8 - 29.98 29.98 15 FEW045 OVC210 None
2018-08-18 01:00 64 55 - 72 190° 8 - 29.99 29.99 15 FEW045 BKN210 None
2018-08-18 00:00 64 55 - 72 180° 8 - 29.98 29.99 15 FEW045 BKN210 None
2018-08-17 23:00 68 57 - 68 210° 9 - 29.98 29.98 15 FEW045 BKN210 None
2018-08-17 22:00 72 59 76 64 200° 3 - 29.98 29.98 15 FEW045 BKN210 None
2018-08-17 21:00 73 57 77 56 190° 6 - 29.99 29.99 15 FEW045 BKN210 None
2018-08-17 20:00 75 59 78 57 190° 8 - 30.01 30.01 15 SCT041 BKN210 None
2018-08-17 19:00 75 57 78 53 260° 8 - 30.03 30.03 15 SCT041 BKN210 None
2018-08-17 18:00 75 59 78 57 230° 7 - 30.05 30.05 15 SCT038 BKN210 None
2018-08-17 17:00 73 59 77 60 240° 9 - 30.06 30.06 15 BKN038 BKN210 None
2018-08-17 16:00 70 59 - 68 230° 5 - 30.07 30.08 15 SCT029 SCT210 None
2018-08-17 15:00 66 57 - 72 260° 3 - 30.09 30.10 15 FEW015 None

Support USWX by starting your Amazon purchase here.